Time;durP1;ratioP1;P1;durP2;ratioP2;P2;SDS_P1;SDS_P2;PMS_P1;PMS_P2;Temp;Humidity;BMP_temperature;BMP_pressure;BME280_temperature;BME280_humidity;BME280_pressure;Samples;Min_cycle;Max_cycle;Signal;HPM_P1;HPM_P2
2022/11/04 00:01:34;;;;;;;7.40;3.40;;;;;;;2.74;84.55;99097.02;102356;1296;61161;-24
2022/11/04 00:04:01;;;;;;;5.70;2.20;;;;;;;2.52;85.29;99095.98;102439;1296;61473;-24
2022/11/04 00:06:28;;;;;;;6.10;3.50;;;;;;;2.89;85.55;99095.41;102459;1296;74497;-24
2022/11/04 00:08:57;;;;;;;5.20;3.50;;;;;;;3.40;83.93;99094.58;102616;1296;74543;-24
2022/11/04 00:14:17;;;;;;;4.80;3.40;;;;;;;3.25;83.45;99087.64;102426;1293;61948;-24
2022/11/04 00:28:41;;;;;;;6.40;3.90;;;;;;;2.74;84.76;99083.98;102652;1296;74437;-24
2022/11/04 00:33:24;;;;;;;6.80;3.50;;;;;;;3.65;82.15;99079.59;102346;1298;61724;-25
2022/11/04 00:33:47;;;;;;;6.10;3.50;;;;;;;3.35;82.14;99080.13;102306;1292;74625;-25
2022/11/04 00:36:14;;;;;;;5.60;3.70;;;;;;;3.07;82.88;99079.42;102465;1296;75765;-25
2022/11/04 00:38:41;;;;;;;5.90;3.70;;;;;;;2.81;83.45;99080.35;102702;1288;74304;-23
2022/11/04 00:41:26;;;;;;;3.40;2.10;;;;;;;2.62;84.01;99075.14;102371;1296;62550;-23
2022/11/04 00:43:56;;;;;;;5.20;3.00;;;;;;;3.11;83.71;99072.55;102432;1291;61807;-23
2022/11/04 00:46:23;;;;;;;5.40;3.10;;;;;;;3.62;82.50;99068.76;102345;1299;73578;-22
2022/11/04 00:48:50;;;;;;;3.70;2.80;;;;;;;3.63;81.82;99063.18;102582;1289;75742;-23
2022/11/04 00:51:18;;;;;;;4.70;3.40;;;;;;;3.46;81.82;99064.63;102466;1296;73189;-23
2022/11/04 00:53:46;;;;;;;4.90;2.80;;;;;;;3.18;82.02;99064.13;102423;1296;61768;-22
2022/11/04 00:56:13;;;;;;;5.10;3.10;;;;;;;2.84;81.99;99061.20;102606;1288;61859;-23
2022/11/04 00:58:40;;;;;;;7.50;4.20;;;;;;;2.49;82.27;99055.66;102624;1296;75389;-23
2022/11/04 01:01:16;;;;;;;4.40;2.80;;;;;;;2.35;84.22;99053.79;102579;1290;75853;-25
2022/11/04 01:03:44;;;;;;;5.30;3.30;;;;;;;3.08;83.61;99049.34;102342;1299;73236;-25
2022/11/04 01:06:12;;;;;;;6.10;3.30;;;;;;;3.53;82.26;99043.98;102272;1298;61479;-25
2022/11/04 01:08:40;;;;;;;4.40;2.90;;;;;;;3.50;81.78;99046.23;102552;1289;61877;-25
2022/11/04 01:11:08;;;;;;;7.10;3.10;;;;;;;3.26;81.78;99042.97;102563;1294;74274;-25
2022/11/04 01:13:37;;;;;;;3.70;2.90;;;;;;;2.93;82.80;99037.42;102611;1290;75623;-25
2022/11/04 01:16:06;;;;;;;6.20;3.80;;;;;;;2.66;83.37;99028.80;102512;1297;73088;-23
2022/11/04 01:18:33;;;;;;;4.10;2.60;;;;;;;2.46;83.55;99030.48;102432;1296;61516;-22
2022/11/04 01:21:02;;;;;;;3.00;2.10;;;;;;;2.82;84.15;99026.84;102697;1295;61705;-23
2022/11/04 01:23:31;;;;;;;3.30;2.70;;;;;;;3.32;82.48;99026.22;102389;1299;75354;-22
2022/11/04 01:25:58;;;;;;;5.30;3.10;;;;;;;3.25;80.96;99024.00;102496;1298;75788;-23
2022/11/04 01:28:26;;;;;;;5.80;3.60;;;;;;;2.95;80.87;99027.38;102409;1299;73184;-23
2022/11/04 01:30:54;;;;;;;6.50;3.70;;;;;;;2.59;81.19;99023.49;102473;1296;61085;-23
2022/11/04 01:33:21;;;;;;;4.90;3.40;;;;;;;2.27;81.87;99018.66;102387;1296;61633;-23
2022/11/04 01:35:51;;;;;;;4.30;3.20;;;;;;;1.92;81.57;99016.90;102531;1288;75407;-22
2022/11/04 01:38:19;;;;;;;2.40;1.80;;;;;;;1.59;81.61;99014.95;102418;1280;75695;-23
2022/11/04 01:40:47;;;;;;;5.10;2.90;;;;;;;1.90;81.73;99008.40;102490;1288;74248;-23
2022/11/04 01:43:17;;;;;;;8.70;3.50;;;;;;;2.35;81.71;99007.33;102241;1298;61829;-23
2022/11/04 01:48:34;;;;;;;4.00;2.80;;;;;;;2.27;81.76;99001.54;99239;1329;600373;-22
2022/11/04 01:51:01;;;;;;;4.00;2.20;;;;;;;1.99;81.62;98996.35;101062;1299;62187;-23
2022/11/04 01:53:33;;;;;;;4.40;2.80;;;;;;;1.60;80.84;98990.58;101197;1311;61792;-23
2022/11/04 01:56:03;;;;;;;3.00;2.20;;;;;;;1.22;81.75;98989.05;101099;1314;73490;-23
2022/11/04 01:58:31;;;;;;;3.10;2.20;;;;;;;1.50;81.88;98993.60;101042;1308;76996;-23
2022/11/04 02:00:58;;;;;;;4.20;2.00;;;;;;;1.88;80.42;98989.48;101091;1312;74251;-23
2022/11/04 02:03:37;;;;;;;3.00;2.30;;;;;;;1.81;79.46;98988.80;100729;1312;61181;-23
2022/11/04 02:06:05;;;;;;;2.30;1.80;;;;;;;1.49;79.68;98990.56;101365;1310;62702;-25
2022/11/04 02:08:32;;;;;;;4.20;2.60;;;;;;;1.15;80.25;98995.16;101839;1307;74747;-25
2022/11/04 02:11:00;;;;;;;4.00;2.60;;;;;;;0.83;80.50;98996.17;101493;1304;75817;-24
2022/11/04 02:13:29;;;;;;;3.20;2.50;;;;;;;0.51;81.13;99001.56;101570;1311;75206;-24
2022/11/04 02:16:23;;;;;;;4.70;2.70;;;;;;;0.25;82.15;99002.95;101523;1307;61849;-24
2022/11/04 02:19:00;;;;;;;3.90;2.00;;;;;;;0.09;83.05;99002.02;101659;1308;62882;-24
2022/11/04 02:21:39;;;;;;;4.90;3.10;;;;;;;0.69;82.21;99002.04;101517;1308;75409;-24
2022/11/04 02:24:06;;;;;;;4.10;2.60;;;;;;;1.26;80.73;99003.22;101473;1306;76742;-24
2022/11/04 02:26:48;;;;;;;3.50;2.20;;;;;;;1.27;80.08;99002.68;101541;1307;75809;-24
2022/11/04 02:29:26;;;;;;;6.30;2.10;;;;;;;1.04;80.16;99012.70;101374;1311;61853;-24
2022/11/04 02:32:11;;;;;;;2.30;1.80;;;;;;;0.76;80.99;99013.88;101959;1305;62703;-24
2022/11/04 02:34:57;;;;;;;2.80;2.30;;;;;;;0.45;81.61;99009.00;102224;1298;75319;-24
2022/11/04 02:37:36;;;;;;;3.90;2.50;;;;;;;0.17;82.54;99010.42;102093;1300;76847;-24
2022/11/04 02:40:38;;;;;;;2.80;1.90;;;;;;;-0.02;82.87;99006.89;102299;1298;75145;-24
2022/11/04 02:43:21;;;;;;;3.10;2.40;;;;;;;0.65;82.85;99001.70;101969;1304;61190;-24
2022/11/04 02:45:49;;;;;;;3.10;2.30;;;;;;;1.18;81.21;98996.73;102283;1300;61565;-24
2022/11/04 02:48:27;;;;;;;3.20;2.40;;;;;;;1.03;79.38;98997.73;102172;1303;75593;-24
2022/11/04 02:51:08;;;;;;;2.00;1.60;;;;;;;0.76;80.12;98998.01;102208;1302;76774;-24
2022/11/04 02:53:37;;;;;;;2.30;2.00;;;;;;;0.53;81.06;99000.80;101897;1303;74184;-24
2022/11/04 02:56:04;;;;;;;2.20;2.00;;;;;;;0.29;81.37;99000.42;102169;1294;61111;-24
2022/11/04 02:58:47;;;;;;;2.90;2.50;;;;;;;0.02;81.53;99001.30;102124;1300;62787;-24
2022/11/04 03:01:16;;;;;;;2.70;1.40;;;;;;;-0.21;81.70;99001.27;101914;1302;73816;-24
2022/11/04 03:03:47;;;;;;;2.70;2.10;;;;;;;0.25;82.01;98997.63;102026;1300;75843;-24
2022/11/04 03:06:16;;;;;;;4.20;2.40;;;;;;;0.92;80.96;98987.22;101960;1298;75453;-23
2022/11/04 03:08:46;;;;;;;4.20;2.80;;;;;;;1.08;80.48;98987.77;102052;1301;61543;-23
2022/11/04 03:11:15;;;;;;;2.90;2.00;;;;;;;0.93;80.34;98993.86;102072;1302;61864;-23
2022/11/04 03:13:56;;;;;;;3.60;2.50;;;;;;;0.70;80.57;98991.92;101958;1297;75824;-23
2022/11/04 03:16:35;;;;;;;3.50;2.60;;;;;;;0.46;81.38;98995.29;102178;1302;76592;-23
2022/11/04 03:19:27;;;;;;;3.90;2.70;;;;;;;0.25;81.94;98991.00;102171;1301;75180;-23
2022/11/04 03:21:58;;;;;;;2.00;1.60;;;;;;;0.08;82.57;98991.63;102059;1301;63754;-23
2022/11/04 03:24:25;;;;;;;3.80;2.40;;;;;;;0.66;82.81;98991.58;102085;1301;62606;-23
2022/11/04 03:27:28;;;;;;;5.30;2.70;;;;;;;1.33;81.77;98987.52;102219;1298;75430;-23
2022/11/04 03:30:16;;;;;;;3.10;2.40;;;;;;;1.50;80.94;98979.95;102066;1297;75800;-23
2022/11/04 03:33:03;;;;;;;3.90;2.30;;;;;;;1.30;80.76;98978.08;102078;1301;75273;-23
2022/11/04 03:35:30;;;;;;;3.10;2.40;;;;;;;1.06;81.28;98976.04;102155;1301;62221;-23
2022/11/04 03:37:57;;;;;;;3.40;2.70;;;;;;;0.86;81.75;98977.59;102130;1295;61862;-24
2022/11/04 03:40:24;;;;;;;2.80;2.30;;;;;;;0.63;82.26;98977.68;102111;1300;74333;-25
2022/11/04 03:43:08;;;;;;;2.70;1.80;;;;;;;0.49;82.87;98984.58;102288;1302;76739;-24
2022/11/04 03:45:36;;;;;;;3.20;2.00;;;;;;;1.01;82.81;98980.70;101937;1303;75121;-23
2022/11/04 03:48:04;;;;;;;4.20;2.20;;;;;;;1.62;81.55;98977.68;102165;1302;62929;-24
2022/11/04 03:50:33;;;;;;;7.10;2.60;;;;;;;1.68;80.57;98976.91;102320;1304;62859;-24
2022/11/04 03:53:01;;;;;;;4.60;2.40;;;;;;;1.51;80.71;98974.41;102083;1295;75559;-24
2022/11/04 03:56:02;;;;;;;4.30;2.80;;;;;;;1.32;80.86;98974.56;102151;1301;76534;-24
2022/11/04 03:58:32;;;;;;;3.80;2.90;;;;;;;1.06;81.06;98973.98;102228;1302;75300;-24
2022/11/04 04:01:26;;;;;;;6.90;3.20;;;;;;;0.84;81.34;98976.49;102183;1300;62046;-24
2022/11/04 04:04:21;;;;;;;2.70;1.90;;;;;;;0.65;81.80;98971.29;102076;1301;61044;-24
2022/11/04 04:06:49;;;;;;;3.80;2.90;;;;;;;1.36;81.45;98964.83;102224;1300;75444;-24
2022/11/04 04:09:24;;;;;;;3.10;2.40;;;;;;;1.88;80.21;98967.25;101892;1306;77243;-24
2022/11/04 04:12:11;;;;;;;5.10;2.70;;;;;;;1.78;79.17;98965.97;102053;1300;75326;-24
2022/11/04 04:14:44;;;;;;;3.00;1.90;;;;;;;1.50;79.50;98967.09;102080;1296;61857;-24
2022/11/04 04:17:36;;;;;;;3.80;2.00;;;;;;;1.20;79.60;98964.14;102092;1299;61835;-24
2022/11/04 04:20:12;;;;;;;5.20;3.10;;;;;;;0.84;80.12;98959.57;102202;1302;75723;-24
2022/11/04 04:22:42;;;;;;;4.90;2.60;;;;;;;0.52;80.40;98957.10;101952;1297;74715;-22
2022/11/04 04:27:56;;;;;;;4.50;2.60;;;;;;;-0.00;81.72;98959.20;101954;1301;62623;-22
2022/11/04 04:30:23;;;;;;;6.90;3.30;;;;;;;0.53;81.89;98960.13;101987;1301;61993;-21
2022/11/04 04:33:08;;;;;;;6.40;3.80;;;;;;;1.18;80.66;98957.05;102222;1302;75562;-23
2022/11/04 04:35:41;;;;;;;8.60;4.90;;;;;;;1.27;80.32;98963.18;102133;1299;75793;-22
2022/11/04 04:46:42;;;;;;;7.50;3.80;;;;;;;0.08;81.29;98959.92;102050;1303;74560;-23
2022/11/04 04:49:09;;;;;;;5.20;2.70;;;;;;;-0.13;81.48;98963.63;102119;1303;75667;-23
2022/11/04 04:51:39;;;;;;;4.30;3.00;;;;;;;0.23;81.91;98955.06;102253;1300;75196;-23
2022/11/04 04:54:06;;;;;;;7.80;5.50;;;;;;;0.84;80.62;98952.00;102070;1302;61900;-23
2022/11/04 04:56:33;;;;;;;7.30;4.40;;;;;;;0.91;79.85;98949.15;102220;1302;62852;-24
2022/11/04 04:59:00;;;;;;;6.00;3.60;;;;;;;0.70;79.76;98947.84;102173;1303;75707;-23
2022/11/04 05:01:28;;;;;;;7.40;3.70;;;;;;;0.40;80.31;98945.46;102203;1302;75403;-23
2022/11/04 05:03:55;;;;;;;5.90;3.60;;;;;;;0.13;81.09;98948.09;102203;1297;75448;-23
2022/11/04 05:06:22;;;;;;;9.70;4.40;;;;;;;-0.12;81.26;98948.09;102152;1294;61142;-23
2022/11/04 05:08:49;;;;;;;5.10;3.10;;;;;;;-0.36;81.98;98950.67;102301;1297;61621;-23
2022/11/04 05:11:16;;;;;;;6.90;3.60;;;;;;;0.02;82.33;98949.59;102202;1302;75735;-23
2022/11/04 05:13:48;;;;;;;8.90;5.50;;;;;;;0.64;81.14;98949.97;102142;1301;75876;-23
2022/11/04 05:16:15;;;;;;;11.00;6.80;;;;;;;0.70;80.45;98951.92;102116;1301;75405;-23
2022/11/04 05:18:42;;;;;;;12.90;5.80;;;;;;;0.53;80.55;98953.66;102077;1303;61087;-23
2022/11/04 05:21:11;;;;;;;8.20;5.90;;;;;;;0.28;80.79;98957.59;102217;1302;62808;-23
2022/11/04 05:23:38;;;;;;;9.50;5.30;;;;;;;0.03;81.23;98956.52;101894;1303;75773;-23
2022/11/04 05:26:06;;;;;;;11.20;6.60;;;;;;;-0.17;81.76;98958.16;102215;1300;74722;-23
2022/11/04 05:28:33;;;;;;;8.20;4.10;;;;;;;-0.32;82.20;98962.83;102213;1298;75278;-23
2022/11/04 05:31:04;;;;;;;6.40;4.30;;;;;;;0.12;82.84;98962.81;102201;1302;64098;-25
2022/11/04 05:33:32;;;;;;;10.30;6.50;;;;;;;0.82;81.50;98959.98;101996;1302;61841;-27
2022/11/04 05:36:25;;;;;;;10.50;6.30;;;;;;;0.95;80.91;98962.64;102154;1301;75624;-23
2022/11/04 05:38:56;;;;;;;;;;;;;;;0.83;81.07;98967.63;102020;1304;76807;-24
2022/11/04 05:41:26;;;;;;;8.40;5.00;;;;;;;0.65;81.19;98964.59;101996;1304;74134;-26
2022/11/04 05:43:58;;;;;;;9.20;5.90;;;;;;;0.47;81.52;98968.60;102102;1295;62034;-24
2022/11/04 05:46:25;;;;;;;9.70;6.30;;;;;;;0.28;81.75;98972.77;102239;1301;62181;-22
2022/11/04 05:48:52;;;;;;;6.30;3.60;;;;;;;0.17;82.17;98983.64;102303;1302;75820;-22
2022/11/04 05:51:22;;;;;;;18.20;6.50;;;;;;;0.62;82.02;98991.57;101899;1305;75695;-22
2022/11/04 05:53:49;;;;;;;10.10;5.40;;;;;;;1.28;81.17;98988.59;101956;1294;75560;-22
2022/11/04 05:56:16;;;;;;;7.80;5.10;;;;;;;1.44;80.35;98986.88;101974;1302;61761;-22
2022/11/04 05:58:44;;;;;;;9.70;5.30;;;;;;;1.32;80.20;98992.36;102116;1302;61652;-27
2022/11/04 06:01:30;;;;;;;9.50;4.80;;;;;;;1.16;80.34;98989.48;102047;1294;74292;-27
2022/11/04 06:03:58;;;;;;;12.10;5.50;;;;;;;0.91;80.42;98989.34;101953;1304;75820;-23
2022/11/04 06:06:28;;;;;;;9.60;5.90;;;;;;;0.73;81.15;98995.91;101926;1294;75220;-23
2022/11/04 06:08:56;;;;;;;9.10;6.10;;;;;;;0.55;81.43;98995.09;102124;1300;61055;-23
2022/11/04 06:11:23;;;;;;;8.20;4.10;;;;;;;0.46;81.99;98993.74;102163;1302;63012;-23
2022/11/04 06:13:52;;;;;;;7.90;3.80;;;;;;;1.01;82.32;98984.95;102251;1299;76503;-24
2022/11/04 06:16:19;;;;;;;11.80;6.50;;;;;;;1.77;81.15;98986.73;102124;1302;76692;-22
2022/11/04 06:18:46;;;;;;;9.00;4.90;;;;;;;2.02;80.25;98992.63;102349;1292;74972;-22
2022/11/04 06:21:13;;;;;;;12.50;6.90;;;;;;;1.98;79.94;98987.84;102110;1299;62833;-24
2022/11/04 06:23:41;;;;;;;13.20;6.70;;;;;;;1.85;80.03;98985.38;102013;1300;62692;-23
2022/11/04 06:26:09;;;;;;;17.30;7.90;;;;;;;1.71;80.45;98982.44;102000;1307;75040;-22
2022/11/04 06:28:37;;;;;;;13.60;6.60;;;;;;;1.61;81.00;98981.33;102090;1300;76723;-22
2022/11/04 06:31:06;;;;;;;13.50;6.90;;;;;;;1.49;81.18;98977.08;102221;1294;75397;-22
2022/11/04 06:33:33;;;;;;;8.10;4.50;;;;;;;1.43;81.85;98981.10;102102;1292;62024;-22
2022/11/04 06:36:04;;;;;;;14.20;5.90;;;;;;;1.98;81.86;98978.07;102309;1302;61537;-22
2022/11/04 06:38:32;;;;;;;12.30;6.00;;;;;;;2.68;80.51;98977.31;102037;1299;74703;-22
2022/11/04 06:40:59;;;;;;;8.10;5.10;;;;;;;2.86;79.28;98981.86;101934;1300;76851;-22
2022/11/04 06:43:27;;;;;;;9.90;5.20;;;;;;;2.87;79.30;98982.86;102013;1307;74165;-22
2022/11/04 06:45:58;;;;;;;10.50;6.00;;;;;;;2.84;79.47;98981.81;102311;1301;62643;-22
2022/11/04 06:48:26;;;;;;;8.20;5.20;;;;;;;2.83;79.76;98982.89;101954;1306;62560;-22
2022/11/04 06:50:53;;;;;;;13.60;6.50;;;;;;;2.90;80.17;98987.17;102148;1302;76332;-22
2022/11/04 06:53:20;;;;;;;10.00;6.50;;;;;;;3.00;80.43;98980.85;102231;1302;75723;-23
2022/11/04 06:55:47;;;;;;;10.60;5.70;;;;;;;3.09;80.71;98978.98;102205;1301;74768;-22
2022/11/04 06:58:14;;;;;;;12.40;6.10;;;;;;;3.25;80.91;98984.89;102308;1297;62121;-22
2022/11/04 07:00:41;;;;;;;12.90;6.30;;;;;;;3.39;80.95;98986.20;102186;1297;63100;-22
2022/11/04 07:03:09;;;;;;;9.70;6.10;;;;;;;3.56;80.95;98988.92;102028;1303;76252;-22
2022/11/04 07:05:36;;;;;;;10.60;6.60;;;;;;;3.76;80.84;98985.78;102155;1298;75872;-22
2022/11/04 07:08:04;;;;;;;10.80;6.40;;;;;;;3.95;80.74;98988.52;102133;1297;75487;-22
2022/11/04 07:10:32;;;;;;;13.50;6.50;;;;;;;4.11;80.23;98989.38;102026;1301;62080;-22
2022/11/04 07:13:00;;;;;;;10.70;6.70;;;;;;;4.23;80.36;98983.20;102094;1301;62790;-22
2022/11/04 07:15:27;;;;;;;10.50;6.10;;;;;;;4.36;80.06;98983.20;102111;1298;76617;-22
2022/11/04 07:17:54;;;;;;;8.70;6.40;;;;;;;4.49;79.89;98980.04;102253;1294;76622;-22
2022/11/04 07:20:21;;;;;;;10.00;6.30;;;;;;;4.67;80.05;98982.07;102149;1301;75179;-23
2022/11/04 07:22:48;;;;;;;14.50;6.60;;;;;;;4.87;79.99;98984.90;102209;1303;65361;-23
2022/11/04 07:25:15;;;;;;;15.80;6.30;;;;;;;5.03;79.21;98986.40;102219;1294;62658;-23
2022/11/04 07:27:42;;;;;;;10.10;7.30;;;;;;;5.18;79.22;98985.29;102074;1300;75409;-24
2022/11/04 07:30:10;;;;;;;11.90;6.90;;;;;;;5.32;78.81;98977.61;102137;1302;76786;-23
2022/11/04 07:32:37;;;;;;;11.60;6.20;;;;;;;5.40;78.88;98980.20;101944;1304;75251;-23
2022/11/04 07:35:05;;;;;;;13.10;6.70;;;;;;;5.53;78.61;98982.54;102201;1301;62714;-23
2022/11/04 07:37:32;;;;;;;13.40;6.70;;;;;;;5.69;78.72;98980.83;101937;1298;61781;-24
2022/11/04 07:39:59;;;;;;;11.80;7.30;;;;;;;5.84;78.54;98979.73;102197;1301;76340;-23
2022/11/04 07:42:26;;;;;;;11.20;6.70;;;;;;;6.03;78.11;98977.37;102292;1302;76520;-23
2022/11/04 07:44:54;;;;;;;11.70;6.80;;;;;;;6.26;77.85;98975.75;102228;1302;75302;-23
2022/11/04 07:47:21;;;;;;;12.80;7.20;;;;;;;6.46;77.70;98976.35;101983;1301;61844;-25
2022/11/04 07:49:48;;;;;;;13.50;7.30;;;;;;;6.68;76.37;98976.26;102327;1297;62868;-23
2022/11/04 07:52:15;;;;;;;12.30;6.80;;;;;;;6.91;76.68;98980.15;101918;1304;76353;-23
2022/11/04 07:54:43;;;;;;;10.70;7.10;;;;;;;7.20;75.67;98979.06;102173;1300;76777;-26
2022/11/04 07:57:10;;;;;;;8.90;6.60;;;;;;;7.39;74.36;98971.86;102089;1302;75121;-26
2022/11/04 07:59:37;;;;;;;15.40;7.20;;;;;;;7.57;74.22;98973.24;102149;1305;62444;-23
2022/11/04 08:02:05;;;;;;;12.90;6.80;;;;;;;7.77;73.66;98971.84;102179;1298;62728;-23
2022/11/04 08:04:32;;;;;;;10.90;7.10;;;;;;;7.99;73.70;98968.19;102185;1302;74573;-24
2022/11/04 08:06:59;;;;;;;12.10;6.40;;;;;;;8.13;73.10;98968.36;102109;1302;75644;-25
2022/11/04 08:09:26;;;;;;;12.60;7.30;;;;;;;8.15;72.58;98972.39;102151;1302;75272;-24
2022/11/04 08:11:54;;;;;;;9.60;6.40;;;;;;;8.21;72.57;98973.56;102064;1302;62873;-27
